createdAt,value
2022-08-28T00:00:10.217Z,100221.00
2022-08-28T00:02:36.753Z,100227.59
2022-08-28T00:05:03.910Z,100225.09
2022-08-28T00:07:30.427Z,100235.28
2022-08-28T00:09:56.841Z,100239.06
2022-08-28T00:12:23.472Z,100240.22
2022-08-28T00:14:49.923Z,100240.78
2022-08-28T00:17:16.409Z,100247.06
2022-08-28T00:19:42.903Z,100239.94
2022-08-28T00:22:09.526Z,100240.34
2022-08-28T00:24:36.840Z,100232.81
2022-08-28T00:27:22.005Z,100235.38
2022-08-28T00:29:48.472Z,100236.91
2022-08-28T00:32:14.964Z,100243.28
2022-08-28T00:34:41.403Z,100247.06
2022-08-28T00:37:07.910Z,100247.91
2022-08-28T00:39:34.658Z,100248.25
2022-08-28T00:42:01.185Z,100236.03
2022-08-28T00:44:28.982Z,100232.88
2022-08-28T00:46:57.617Z,100239.06
2022-08-28T00:49:27.862Z,100243.59
2022-08-28T00:52:15.946Z,100235.50
2022-08-28T00:54:59.492Z,100233.94
2022-08-28T00:57:40.413Z,100238.84
2022-08-28T01:00:10.876Z,100236.56
2022-08-28T01:02:37.353Z,100237.00
2022-08-28T01:05:09.506Z,100234.72
2022-08-28T01:07:37.332Z,100235.06
2022-08-28T01:10:07.509Z,100231.59
2022-08-28T01:12:34.971Z,100232.81
2022-08-28T01:15:09.282Z,100237.75
2022-08-28T01:17:36.500Z,100244.88
2022-08-28T01:20:11.224Z,100247.16
2022-08-28T01:22:44.371Z,100240.47
2022-08-28T01:25:14.082Z,100248.34
2022-08-28T01:27:41.989Z,100253.75
2022-08-28T01:30:12.613Z,100248.66
2022-08-28T01:32:43.574Z,100250.72
2022-08-28T01:35:18.774Z,100243.38
2022-08-28T01:37:45.906Z,100248.44
2022-08-28T01:40:17.529Z,100245.63
2022-08-28T01:42:44.731Z,100252.22
2022-08-28T01:45:14.660Z,100247.66
2022-08-28T01:47:43.584Z,100248.88
2022-08-28T01:50:14.413Z,100253.50
2022-08-28T01:52:41.616Z,100248.53
2022-08-28T01:55:11.102Z,100243.50
2022-08-28T01:57:44.830Z,100247.03
2022-08-28T02:00:12.227Z,100236.41
2022-08-28T02:02:39.845Z,100240.94
2022-08-28T02:05:08.163Z,100238.84
2022-08-28T02:07:35.152Z,100237.22
2022-08-28T02:10:02.807Z,100242.75
2022-08-28T02:12:29.970Z,100241.53
2022-08-28T02:14:56.424Z,100243.03
2022-08-28T02:17:22.873Z,100242.63
2022-08-28T02:19:49.331Z,100238.19
2022-08-28T02:22:15.752Z,100239.81
2022-08-28T02:24:42.201Z,100248.78
2022-08-28T02:27:09.025Z,100251.47
2022-08-28T02:29:35.468Z,100243.00
2022-08-28T02:32:01.994Z,100249.75
2022-08-28T02:34:28.432Z,100240.97
2022-08-28T02:36:56.145Z,100244.03
2022-08-28T02:39:22.536Z,100246.09
2022-08-28T02:41:48.930Z,100244.09
2022-08-28T02:44:15.383Z,100250.47
2022-08-28T02:46:41.986Z,100244.66
2022-08-28T02:49:08.451Z,100240.75
2022-08-28T02:51:35.168Z,100235.56
2022-08-28T02:54:02.418Z,100239.75
2022-08-28T02:56:29.222Z,100231.03
2022-08-28T02:58:55.673Z,100236.41
2022-08-28T03:01:23.861Z,100234.03
2022-08-28T03:03:50.289Z,100232.19
2022-08-28T03:06:16.850Z,100241.69
2022-08-28T03:08:44.354Z,100239.97
2022-08-28T03:11:11.878Z,100239.13
2022-08-28T03:13:38.749Z,100230.00
2022-08-28T03:16:05.686Z,100234.53
2022-08-28T03:18:33.099Z,100231.91
2022-08-28T03:21:00.158Z,100239.44
2022-08-28T03:23:26.897Z,100239.03
2022-08-28T03:25:57.146Z,100235.78
2022-08-28T03:28:25.927Z,100238.84
2022-08-28T03:30:52.632Z,100236.09
2022-08-28T03:33:19.241Z,100230.69
2022-08-28T03:35:45.733Z,100228.75
2022-08-28T03:38:12.819Z,100228.09
2022-08-28T03:40:42.441Z,100227.09
2022-08-28T03:43:11.465Z,100227.09
2022-08-28T03:45:38.590Z,100220.75
2022-08-28T03:48:05.103Z,100232.19
2022-08-28T03:50:31.515Z,100228.19
2022-08-28T03:52:59.209Z,100227.00
2022-08-28T03:55:26.321Z,100235.31
2022-08-28T03:57:52.780Z,100236.94
2022-08-28T04:00:20.343Z,100237.94
2022-08-28T04:02:46.803Z,100238.53
2022-08-28T04:05:15.641Z,100231.94
2022-08-28T04:07:42.043Z,100236.69
2022-08-28T04:10:08.988Z,100239.97
2022-08-28T04:12:37.013Z,100245.69
2022-08-28T04:15:05.692Z,100236.41
2022-08-28T04:17:33.481Z,100235.94
2022-08-28T04:19:59.925Z,100243.03
2022-08-28T04:22:26.366Z,100246.25
2022-08-28T04:24:54.530Z,100249.63
2022-08-28T04:27:20.972Z,100249.66
2022-08-28T04:29:49.042Z,100254.78
2022-08-28T04:32:15.660Z,100255.53
2022-08-28T04:34:42.104Z,100261.53
2022-08-28T04:37:08.564Z,100262.31
2022-08-28T04:39:35.257Z,100266.47
2022-08-28T04:42:01.701Z,100268.41
2022-08-28T04:44:28.332Z,100264.94
2022-08-28T04:46:54.819Z,100264.94
2022-08-28T04:49:22.809Z,100274.75
2022-08-28T04:51:52.446Z,100272.44
2022-08-28T04:54:19.003Z,100277.81
2022-08-28T04:56:46.234Z,100272.72
2022-08-28T04:59:12.991Z,100276.38
2022-08-28T05:01:41.907Z,100277.88
2022-08-28T05:04:09.590Z,100275.94
2022-08-28T05:06:36.097Z,100282.69
2022-08-28T05:09:04.301Z,100281.22
2022-08-28T05:11:33.301Z,100277.66
2022-08-28T05:14:04.158Z,100283.16
2022-08-28T05:16:30.822Z,100277.81
2022-08-28T05:19:00.557Z,100283.88
2022-08-28T05:21:28.208Z,100286.66
2022-08-28T05:23:57.635Z,100285.34
2022-08-28T05:26:27.067Z,100297.25
2022-08-28T05:28:55.983Z,100294.66
2022-08-28T05:31:24.079Z,100299.41
2022-08-28T05:33:51.765Z,100308.56
2022-08-28T05:36:22.015Z,100314.31
2022-08-28T05:38:49.605Z,100312.78
2022-08-28T05:41:20.963Z,100316.72
2022-08-28T05:43:47.841Z,100323.56
2022-08-28T05:46:16.146Z,100320.16
2022-08-28T05:48:42.915Z,100315.38
2022-08-28T05:51:15.663Z,100319.09
2022-08-28T05:53:43.998Z,100322.03
2022-08-28T05:56:13.215Z,100319.28
2022-08-28T05:58:40.369Z,100322.63
2022-08-28T06:01:11.382Z,100322.59
2022-08-28T06:03:39.636Z,100315.53
2022-08-28T06:06:07.373Z,100319.78
2022-08-28T06:08:34.380Z,100324.13
2022-08-28T06:11:02.874Z,100324.81
2022-08-28T06:13:30.679Z,100325.91
2022-08-28T06:15:57.907Z,100327.34
2022-08-28T06:18:25.726Z,100328.63
2022-08-28T06:20:53.318Z,100329.63
2022-08-28T06:23:23.939Z,100329.81
2022-08-28T06:25:51.952Z,100330.56
2022-08-28T06:28:22.268Z,100331.94
2022-08-28T06:31:15.750Z,100335.97
2022-08-28T06:33:37.723Z,100339.03
2022-08-28T06:36:05.489Z,100339.31
2022-08-28T06:38:31.909Z,100332.31
2022-08-28T06:40:58.977Z,100342.38
2022-08-28T06:43:28.450Z,100339.97
2022-08-28T06:45:56.790Z,100348.06
2022-08-28T06:48:27.442Z,100338.47
2022-08-28T06:50:55.023Z,100336.97
2022-08-28T06:53:24.530Z,100344.31
2022-08-28T06:55:57.322Z,100342.47
2022-08-28T06:58:24.616Z,100347.31
2022-08-28T07:00:59.626Z,100344.50
2022-08-28T07:03:30.009Z,100353.94
2022-08-28T07:06:01.827Z,100360.66
2022-08-28T07:08:29.448Z,100358.78
2022-08-28T07:10:56.422Z,100353.94
2022-08-28T07:13:23.366Z,100357.91
2022-08-28T07:15:50.015Z,100364.41
2022-08-28T07:18:17.607Z,100370.78
2022-08-28T07:20:45.060Z,100368.09
2022-08-28T07:23:11.587Z,100369.19
2022-08-28T07:25:41.926Z,100374.25
2022-08-28T07:28:09.090Z,100371.16
2022-08-28T07:30:35.703Z,100371.78
2022-08-28T07:33:02.329Z,100374.88
2022-08-28T07:35:28.844Z,100380.41
2022-08-28T07:37:55.264Z,100375.97
2022-08-28T07:40:22.309Z,100366.97
2022-08-28T07:43:07.439Z,100372.78
2022-08-28T07:45:35.388Z,100375.53
2022-08-28T07:48:11.285Z,100377.88
2022-08-28T07:50:38.115Z,100374.09
2022-08-28T07:53:08.068Z,100376.75
2022-08-28T07:55:34.453Z,100375.81
2022-08-28T07:58:02.185Z,100381.22
2022-08-28T08:00:28.619Z,100387.63
2022-08-28T08:02:55.017Z,100386.75
2022-08-28T08:05:21.707Z,100380.13
2022-08-28T08:07:48.143Z,100384.06
2022-08-28T08:10:14.862Z,100385.78
2022-08-28T08:12:47.090Z,100384.25
2022-08-28T08:15:13.603Z,100392.19
2022-08-28T08:17:40.334Z,100389.94
2022-08-28T08:20:08.422Z,100393.16
2022-08-28T08:22:35.575Z,100400.69
2022-08-28T08:25:04.837Z,100398.81
2022-08-28T08:27:38.808Z,100392.69
2022-08-28T08:30:08.126Z,100401.19
2022-08-28T08:32:34.597Z,100399.47
2022-08-28T08:35:01.026Z,100397.25
2022-08-28T08:37:27.487Z,100394.56
2022-08-28T08:39:54.735Z,100393.75
2022-08-28T08:42:25.488Z,100393.63
2022-08-28T08:44:55.323Z,100401.31
2022-08-28T08:47:30.939Z,100400.69
2022-08-28T08:50:00.235Z,100395.78
2022-08-28T08:52:51.226Z,100402.66
2022-08-28T08:55:28.790Z,100402.59
2022-08-28T08:58:04.135Z,100404.91
2022-08-28T09:00:36.779Z,100398.91
2022-08-28T09:03:23.558Z,100406.72
2022-08-28T09:06:01.987Z,100398.97
2022-08-28T09:08:40.673Z,100402.22
2022-08-28T09:11:29.571Z,100411.53
2022-08-28T09:14:09.437Z,100412.69
2022-08-28T09:16:39.805Z,100418.13
2022-08-28T09:19:09.572Z,100411.25
2022-08-28T09:21:41.214Z,100417.75
2022-08-28T09:24:21.457Z,100412.81
2022-08-28T09:27:01.011Z,100413.78
2022-08-28T09:29:31.807Z,100412.69
2022-08-28T09:31:58.799Z,100413.53
2022-08-28T09:34:38.565Z,100420.00
2022-08-28T09:37:08.352Z,100425.88
2022-08-28T09:39:37.850Z,100411.31
2022-08-28T09:42:36.369Z,100412.94
2022-08-28T09:45:20.543Z,100416.16
2022-08-28T09:48:00.572Z,100412.28
2022-08-28T09:50:38.609Z,100421.88
2022-08-28T09:53:13.708Z,100414.94
2022-08-28T09:56:02.159Z,100417.41
2022-08-28T09:58:41.776Z,100408.16
2022-08-28T10:01:31.359Z,100409.78
2022-08-28T10:04:22.809Z,100415.13
2022-08-28T10:07:00.716Z,100406.91
2022-08-28T10:10:21.001Z,100400.41
2022-08-28T10:12:53.533Z,100397.97
2022-08-28T10:15:30.485Z,100395.25
2022-08-28T10:18:07.666Z,100396.53
2022-08-28T10:20:37.098Z,100393.16
2022-08-28T10:23:27.325Z,100393.38
2022-08-28T10:26:04.063Z,100396.09
2022-08-28T10:28:58.588Z,100391.59
2022-08-28T10:31:34.412Z,100400.22
2022-08-28T10:34:14.634Z,100398.59
2022-08-28T10:36:44.452Z,100398.50
2022-08-28T10:39:38.694Z,100393.97
2022-08-28T10:42:06.439Z,100392.53
2022-08-28T10:44:50.707Z,100387.81
2022-08-28T10:47:21.893Z,100394.59
2022-08-28T10:49:53.392Z,100390.59
2022-08-28T10:52:32.340Z,100388.75
2022-08-28T10:55:07.309Z,100389.44
2022-08-28T10:57:39.653Z,100389.19
2022-08-28T11:00:16.607Z,100392.16
2022-08-28T11:02:49.894Z,100391.25
2022-08-28T11:05:21.529Z,100392.81
2022-08-28T11:07:51.703Z,100392.59
2022-08-28T11:10:45.085Z,100390.44
2022-08-28T11:13:11.728Z,100392.63
2022-08-28T11:15:41.650Z,100385.78
2022-08-28T11:18:14.194Z,100385.13
2022-08-28T11:20:43.454Z,100377.28
2022-08-28T11:23:17.243Z,100393.09
2022-08-28T11:25:54.621Z,100382.31
2022-08-28T11:28:24.005Z,100371.50
2022-08-28T11:31:05.798Z,100381.78
2022-08-28T11:33:41.216Z,100383.47
2022-08-28T11:36:19.718Z,100372.34
2022-08-28T11:38:49.317Z,100384.72
2022-08-28T11:41:26.556Z,100381.88
2022-08-28T11:44:08.176Z,100372.41
2022-08-28T11:46:36.411Z,100381.41
2022-08-28T11:49:05.901Z,100368.09
2022-08-28T11:51:56.165Z,100369.81
2022-08-28T11:54:42.581Z,100375.19
2022-08-28T11:57:23.773Z,100367.69
2022-08-28T12:00:20.398Z,100366.69
2022-08-28T12:02:56.364Z,100371.56
2022-08-28T12:05:31.827Z,100368.03
2022-08-28T12:08:02.354Z,100366.16
2022-08-28T12:10:30.491Z,100362.13
2022-08-28T12:13:08.022Z,100357.53
2022-08-28T12:15:34.577Z,100364.56
2022-08-28T12:18:10.389Z,100362.41
2022-08-28T12:20:44.224Z,100361.84
2022-08-28T12:23:38.329Z,100355.66
2022-08-28T12:26:09.983Z,100355.78
2022-08-28T12:28:45.392Z,100357.13
2022-08-28T12:31:50.307Z,100354.34
2022-08-28T12:34:38.207Z,100344.59
2022-08-28T12:37:07.490Z,100353.53
2022-08-28T12:39:34.188Z,100355.91
2022-08-28T12:42:03.418Z,100355.66
2022-08-28T12:44:32.571Z,100361.78
2022-08-28T12:46:59.482Z,100360.38
2022-08-28T12:49:34.768Z,100355.06
2022-08-28T12:52:17.844Z,100343.44
2022-08-28T12:54:49.636Z,100336.63
2022-08-28T12:57:21.474Z,100337.78
2022-08-28T12:59:51.419Z,100338.69
2022-08-28T13:02:28.264Z,100345.50
2022-08-28T13:04:57.571Z,100343.50
2022-08-28T13:07:30.220Z,100342.41
2022-08-28T13:10:00.527Z,100329.44
2022-08-28T13:12:54.391Z,100342.81
2022-08-28T13:15:43.211Z,100335.97
2022-08-28T13:18:10.185Z,100326.22
2022-08-28T13:20:38.876Z,100318.28
2022-08-28T13:23:05.679Z,100317.72
2022-08-28T13:25:35.694Z,100322.75
2022-08-28T13:28:11.205Z,100322.81
2022-08-28T13:30:37.768Z,100313.69
2022-08-28T13:33:18.201Z,100317.94
2022-08-28T13:35:45.199Z,100318.38
2022-08-28T13:38:13.743Z,100312.91
2022-08-28T13:41:02.893Z,100311.19
2022-08-28T13:43:41.978Z,100314.72
2022-08-28T13:46:08.489Z,100313.59
2022-08-28T13:48:34.915Z,100313.09
2022-08-28T13:51:11.232Z,100307.53
2022-08-28T13:53:38.904Z,100303.31
2022-08-28T13:56:05.644Z,100311.59
2022-08-28T13:58:32.352Z,100304.50
2022-08-28T14:00:59.368Z,100307.84
2022-08-28T14:03:38.967Z,100307.31
2022-08-28T14:06:16.807Z,100301.13
2022-08-28T14:08:45.206Z,100303.31
2022-08-28T14:11:13.764Z,100306.47
2022-08-28T14:13:47.453Z,100305.38
2022-08-28T14:16:22.966Z,100301.44
2022-08-28T14:18:50.324Z,100306.53
2022-08-28T14:21:16.925Z,100306.75
2022-08-28T14:23:43.329Z,100303.44
2022-08-28T14:26:09.748Z,100302.09
2022-08-28T14:28:36.192Z,100307.56
2022-08-28T14:31:06.920Z,100297.63
2022-08-28T14:33:36.844Z,100291.72
2022-08-28T14:36:03.635Z,100305.50
2022-08-28T14:38:30.475Z,100298.28
2022-08-28T14:40:56.998Z,100302.28
2022-08-28T14:43:24.082Z,100303.63
2022-08-28T14:45:50.859Z,100304.44
2022-08-28T14:48:18.836Z,100303.09
2022-08-28T14:50:49.153Z,100290.56
2022-08-28T14:53:17.027Z,100295.75
2022-08-28T14:55:46.725Z,100297.03
2022-08-28T14:58:14.595Z,100290.94
2022-08-28T15:00:43.483Z,100295.94
2022-08-28T15:03:12.015Z,100290.47
2022-08-28T15:05:38.637Z,100289.28
2022-08-28T15:08:10.565Z,100291.56
2022-08-28T15:10:39.037Z,100290.97
2022-08-28T15:13:06.094Z,100288.13
2022-08-28T15:15:35.744Z,100288.13
2022-08-28T15:18:02.148Z,100276.03
2022-08-28T15:20:28.604Z,100275.50
2022-08-28T15:22:55.045Z,100274.56
2022-08-28T15:25:21.550Z,100272.03
2022-08-28T15:27:47.976Z,100271.31
2022-08-28T15:30:14.463Z,100274.06
2022-08-28T15:32:42.899Z,100271.47
2022-08-28T15:35:10.861Z,100272.19
2022-08-28T15:37:37.249Z,100276.81
2022-08-28T15:40:23.325Z,100274.31
2022-08-28T15:42:49.839Z,100263.34
2022-08-28T15:45:16.829Z,100269.53
2022-08-28T15:47:43.990Z,100270.00
2022-08-28T15:50:11.292Z,100276.78
2022-08-28T15:52:37.971Z,100273.44
2022-08-28T15:55:06.215Z,100269.22
2022-08-28T15:57:32.994Z,100277.72
2022-08-28T15:59:59.862Z,100264.06
2022-08-28T16:02:26.899Z,100266.81
2022-08-28T16:04:53.790Z,100272.41
2022-08-28T16:07:22.134Z,100265.91
2022-08-28T16:09:49.166Z,100275.16
2022-08-28T16:12:15.658Z,100268.00
2022-08-28T16:14:42.207Z,100272.69
2022-08-28T16:17:10.649Z,100274.75
2022-08-28T16:19:39.742Z,100271.75
2022-08-28T16:22:06.783Z,100269.47
2022-08-28T16:24:33.612Z,100270.09
2022-08-28T16:27:00.071Z,100271.00
2022-08-28T16:29:26.572Z,100270.25
2022-08-28T16:31:53.101Z,100272.28
2022-08-28T16:34:20.272Z,100265.72
2022-08-28T16:36:48.207Z,100270.78
2022-08-28T16:39:15.038Z,100267.84
2022-08-28T16:41:42.113Z,100264.31
2022-08-28T16:44:09.046Z,100269.41
2022-08-28T16:46:35.641Z,100270.69
2022-08-28T16:49:02.651Z,100261.25
2022-08-28T16:51:29.674Z,100257.59
2022-08-28T16:53:56.437Z,100264.81
2022-08-28T16:56:26.518Z,100260.88
2022-08-28T16:58:53.356Z,100262.94
2022-08-28T17:01:23.897Z,100261.00
2022-08-28T17:03:54.583Z,100256.75
2022-08-28T17:06:24.546Z,100259.91
2022-08-28T17:08:56.423Z,100256.38
2022-08-28T17:11:24.396Z,100253.00
2022-08-28T17:13:50.838Z,100256.63
2022-08-28T17:16:18.760Z,100260.53
2022-08-28T17:18:48.141Z,100260.38
2022-08-28T17:21:50.849Z,100260.94
2022-08-28T17:24:17.593Z,100265.16
2022-08-28T17:26:44.462Z,100263.19
2022-08-28T17:29:11.327Z,100267.88
2022-08-28T17:31:38.123Z,100271.81
2022-08-28T17:34:07.118Z,100272.25
2022-08-28T17:36:34.433Z,100277.44
2022-08-28T17:39:06.735Z,100275.59
2022-08-28T17:41:33.791Z,100280.03
2022-08-28T17:44:01.189Z,100281.63
2022-08-28T17:46:27.769Z,100283.19
2022-08-28T17:48:55.610Z,100288.97
2022-08-28T17:51:33.830Z,100287.34
2022-08-28T17:54:10.771Z,100288.94
2022-08-28T17:56:37.282Z,100289.78
2022-08-28T17:59:04.308Z,100280.31
2022-08-28T18:01:30.766Z,100284.19
2022-08-28T18:03:57.287Z,100290.19
2022-08-28T18:06:23.954Z,100292.50
2022-08-28T18:08:51.780Z,100284.13
2022-08-28T18:11:19.122Z,100297.53
2022-08-28T18:13:46.183Z,100306.91
2022-08-28T18:16:12.855Z,100302.47
2022-08-28T18:18:39.285Z,100302.97
2022-08-28T18:21:05.923Z,100303.13
2022-08-28T18:23:32.397Z,100308.75
2022-08-28T18:25:59.620Z,100305.50
2022-08-28T18:28:26.565Z,100316.38
2022-08-28T18:30:53.732Z,100310.34
2022-08-28T18:33:23.262Z,100315.41
2022-08-28T18:35:51.225Z,100313.91
2022-08-28T18:38:18.873Z,100315.59
2022-08-28T18:40:46.546Z,100316.53
2022-08-28T18:43:13.776Z,100314.59
2022-08-28T18:45:40.524Z,100321.44
2022-08-28T18:48:10.245Z,100328.41
2022-08-28T18:50:37.016Z,100333.22
2022-08-28T18:53:04.360Z,100328.25
2022-08-28T18:55:32.164Z,100344.09
2022-08-28T18:58:00.044Z,100356.31
2022-08-28T19:00:27.286Z,100351.88
2022-08-28T19:02:54.278Z,100360.16
2022-08-28T19:05:21.183Z,100368.41
2022-08-28T19:07:48.397Z,100375.00
2022-08-28T19:10:32.686Z,100376.75
2022-08-28T19:13:00.856Z,100368.91
2022-08-28T19:15:28.144Z,100380.09
2022-08-28T19:17:54.599Z,100381.59
2022-08-28T19:20:21.235Z,100376.56
2022-08-28T19:22:48.771Z,100387.25
2022-08-28T19:25:27.841Z,100395.06
2022-08-28T19:27:59.106Z,100393.81
2022-08-28T19:30:27.544Z,100394.97
2022-08-28T19:32:53.976Z,100402.34
2022-08-28T19:35:20.827Z,100403.06
2022-08-28T19:37:51.188Z,100408.53
2022-08-28T19:40:17.667Z,100409.47
2022-08-28T19:42:44.199Z,100414.94
2022-08-28T19:45:13.012Z,100417.31
2022-08-28T19:47:40.065Z,100418.22
2022-08-28T19:50:08.830Z,100423.06
2022-08-28T19:52:36.433Z,100424.53
2022-08-28T19:55:05.877Z,100418.56
2022-08-28T19:57:33.096Z,100434.00
2022-08-28T20:00:00.041Z,100434.28
2022-08-28T20:02:27.212Z,100436.63
2022-08-28T20:04:54.454Z,100436.13
2022-08-28T20:07:20.944Z,100437.06
2022-08-28T20:09:47.399Z,100437.16
2022-08-28T20:12:14.591Z,100445.75
2022-08-28T20:14:42.510Z,100438.47
2022-08-28T20:17:09.461Z,100446.16
2022-08-28T20:19:36.014Z,100442.72
2022-08-28T20:22:03.751Z,100443.66
2022-08-28T20:24:30.215Z,100441.59
2022-08-28T20:26:56.620Z,100444.47
2022-08-28T20:29:24.070Z,100439.91
2022-08-28T20:31:50.734Z,100447.44
2022-08-28T20:34:19.193Z,100443.63
2022-08-28T20:36:45.801Z,100445.78
2022-08-28T20:39:12.450Z,100445.91
2022-08-28T20:41:40.335Z,100452.91
2022-08-28T20:44:09.198Z,100453.47
2022-08-28T20:46:40.459Z,100452.31
2022-08-28T20:49:12.218Z,100459.06
2022-08-28T20:51:52.651Z,100461.13
2022-08-28T20:54:24.518Z,100461.53
2022-08-28T20:56:52.203Z,100462.31
2022-08-28T20:59:20.182Z,100461.53
2022-08-28T21:01:48.670Z,100467.47
2022-08-28T21:04:15.129Z,100476.16
2022-08-28T21:06:41.647Z,100474.84
2022-08-28T21:09:08.142Z,100476.91
2022-08-28T21:11:34.544Z,100482.56
2022-08-28T21:14:01.006Z,100486.81
2022-08-28T21:16:27.594Z,100482.94
2022-08-28T21:19:14.474Z,100487.91
2022-08-28T21:21:41.512Z,100486.91
2022-08-28T21:24:10.904Z,100488.84
2022-08-28T21:26:40.071Z,100493.41
2022-08-28T21:29:09.671Z,100487.00
2022-08-28T21:31:36.327Z,100510.00
2022-08-28T21:34:02.821Z,100502.22
2022-08-28T21:36:29.293Z,100508.34
2022-08-28T21:38:57.504Z,100506.22
2022-08-28T21:41:24.449Z,100509.13
2022-08-28T21:43:50.853Z,100509.13
2022-08-28T21:46:17.383Z,100505.16
2022-08-28T21:48:48.372Z,100509.78
2022-08-28T21:51:16.820Z,100509.47
2022-08-28T21:53:44.617Z,100511.69
2022-08-28T21:56:11.390Z,100518.16
2022-08-28T21:58:41.138Z,100518.31
2022-08-28T22:01:14.882Z,100524.31
2022-08-28T22:03:42.427Z,100523.72
2022-08-28T22:06:13.739Z,100529.31
2022-08-28T22:08:41.132Z,100533.28
2022-08-28T22:11:08.752Z,100528.88
2022-08-28T22:13:36.165Z,100535.59
2022-08-28T22:16:03.541Z,100534.19
2022-08-28T22:18:32.140Z,100532.00
2022-08-28T22:21:19.357Z,100532.78
2022-08-28T22:23:46.598Z,100540.22
2022-08-28T22:26:16.721Z,100548.22
2022-08-28T22:28:43.345Z,100550.06
2022-08-28T22:31:10.122Z,100542.59
2022-08-28T22:33:37.807Z,100542.44
2022-08-28T22:36:04.935Z,100555.16
2022-08-28T22:38:31.475Z,100540.75
2022-08-28T22:40:58.033Z,100551.19
2022-08-28T22:43:24.484Z,100548.75
2022-08-28T22:45:50.991Z,100547.34
2022-08-28T22:48:18.172Z,100539.88
2022-08-28T22:50:47.191Z,100545.28
2022-08-28T22:53:15.592Z,100549.09
2022-08-28T22:55:43.604Z,100549.78
2022-08-28T22:58:10.963Z,100549.09
2022-08-28T23:00:39.318Z,100544.63
2022-08-28T23:03:05.890Z,100551.84
2022-08-28T23:05:32.747Z,100551.91
2022-08-28T23:07:59.219Z,100546.63
2022-08-28T23:10:48.249Z,100548.63
2022-08-28T23:13:13.479Z,100548.06
2022-08-28T23:15:41.344Z,100553.19
2022-08-28T23:18:07.779Z,100554.16
2022-08-28T23:20:34.786Z,100557.91
2022-08-28T23:23:01.897Z,100565.53
2022-08-28T23:25:28.367Z,100558.28
2022-08-28T23:27:55.905Z,100561.13
2022-08-28T23:30:23.381Z,100560.31
2022-08-28T23:32:49.793Z,100556.19
2022-08-28T23:35:17.839Z,100553.84
2022-08-28T23:37:48.752Z,100544.59
2022-08-28T23:40:22.222Z,100542.22
2022-08-28T23:42:49.046Z,100539.31
2022-08-28T23:45:17.635Z,100534.25
2022-08-28T23:47:45.014Z,100525.38
2022-08-28T23:50:16.361Z,100538.06
2022-08-28T23:52:43.193Z,100538.97
2022-08-28T23:55:12.064Z,100539.31
2022-08-28T23:57:38.757Z,100532.34
